createdAt,value
2019-04-22T14:49:23.700Z,1011.0097
2019-04-22T14:49:36.286Z,1011.0192
2019-04-22T14:49:47.075Z,1010.9766
2019-04-22T14:49:58.821Z,1010.9771
2019-04-22T14:50:11.781Z,1010.9636
2019-04-22T14:50:21.660Z,1010.9696
2019-04-22T14:50:34.968Z,1010.9766
2019-04-22T14:50:50.998Z,1011.0106
2019-04-22T14:51:00.252Z,1011.0278
2019-04-22T14:51:11.055Z,1011.0108
2019-04-22T14:51:25.988Z,1011.0117
2019-04-22T14:51:43.815Z,1010.9852
2019-04-22T14:51:54.663Z,1011.0076
2019-04-22T14:52:11.257Z,1010.9494
2019-04-22T14:52:20.875Z,1010.9262
2019-04-22T14:52:32.745Z,1010.9598
2019-04-22T14:52:45.609Z,1010.9392
2019-04-22T14:52:57.842Z,1010.9735
2019-04-22T14:53:07.713Z,1010.946
2019-04-22T14:53:20.530Z,1010.8755
2019-04-22T14:53:34.711Z,1010.9227
2019-04-22T14:53:44.419Z,1010.9277
2019-04-22T14:54:00.721Z,1010.95
2019-04-22T14:54:09.586Z,1010.9843
2019-04-22T14:54:22.297Z,1010.8961
2019-04-22T14:54:34.473Z,1010.89
2019-04-22T14:54:45.686Z,1010.9681
2019-04-22T14:54:53.973Z,1010.9045
2019-04-22T14:55:07.488Z,1010.9165
2019-04-22T14:55:17.402Z,1010.9576
2019-04-22T14:55:28.719Z,1010.9857
2019-04-22T14:55:38.375Z,1010.9385
2019-04-22T14:55:50.454Z,1010.9145
2019-04-22T14:56:02.261Z,1010.8853
2019-04-22T14:56:13.242Z,1010.7907
2019-04-22T14:56:26.435Z,1010.8363
2019-04-22T14:56:38.268Z,1010.8276
2019-04-22T14:56:49.627Z,1010.8911
2019-04-22T14:57:01.426Z,1010.8403
2019-04-22T14:57:14.935Z,1010.9031
2019-04-22T14:57:27.692Z,1010.8915
2019-04-22T14:57:40.280Z,1010.9
2019-04-22T14:57:52.812Z,1010.8382
2019-04-22T14:58:04.763Z,1010.8482
2019-04-22T14:58:17.223Z,1010.9143
2019-04-22T14:58:28.997Z,1010.885
2019-04-22T14:58:40.838Z,1010.9165
2019-04-22T14:58:53.110Z,1010.9042
2019-04-22T14:59:05.066Z,1010.9503
2019-04-22T14:59:16.692Z,1010.931
2019-04-22T14:59:29.180Z,1010.8787
2019-04-22T14:59:41.924Z,1010.899
2019-04-22T14:59:53.750Z,1010.9062
2019-04-22T15:00:06.094Z,1010.9402
2019-04-22T15:00:18.039Z,1010.9434
2019-04-22T15:00:29.555Z,1010.9373
2019-04-22T15:00:42.350Z,1010.9346
2019-04-22T15:00:55.211Z,1010.9248
2019-04-22T15:01:06.873Z,1010.9358
2019-04-22T15:01:19.040Z,1010.9157
2019-04-22T15:01:30.743Z,1010.9171
2019-04-22T15:01:43.183Z,1010.9207
2019-04-22T15:01:55.891Z,1010.8928
2019-04-22T15:02:07.712Z,1010.8222
2019-04-22T15:02:19.742Z,1010.7488
2019-04-22T15:02:31.928Z,1010.8132
2019-04-22T15:02:43.862Z,1010.8103
2019-04-22T15:02:55.450Z,1010.8632
2019-04-22T15:03:07.921Z,1010.8767
2019-04-22T15:03:19.710Z,1010.8273
2019-04-22T15:03:31.622Z,1010.8029
2019-04-22T15:03:44.741Z,1010.8337
2019-04-22T15:03:56.520Z,1010.8013
2019-04-22T15:04:08.915Z,1010.7603
2019-04-22T15:04:21.237Z,1010.7707
2019-04-22T15:04:33.045Z,1010.767
2019-04-22T15:04:44.146Z,1010.7909
2019-04-22T15:04:56.177Z,1010.7703
2019-04-22T15:05:08.118Z,1010.8114
2019-04-22T15:05:19.566Z,1010.7564
2019-04-22T15:05:32.094Z,1010.7993
2019-04-22T15:05:44.131Z,1010.769
2019-04-22T15:05:55.991Z,1010.75
2019-04-22T15:06:08.376Z,1010.727
2019-04-22T15:06:20.110Z,1010.738
2019-04-22T15:06:31.778Z,1010.7993
2019-04-22T15:06:46.147Z,1010.7906
2019-04-22T15:06:57.013Z,1010.7923
2019-04-22T15:07:08.954Z,1010.7235
2019-04-22T15:07:21.072Z,1010.7358
2019-04-22T15:07:32.987Z,1010.7556
2019-04-22T15:07:44.558Z,1010.76
2019-04-22T15:07:57.165Z,1010.7461
2019-04-22T15:08:09.101Z,1010.7565
2019-04-22T15:08:21.370Z,1010.7075
2019-04-22T15:08:32.969Z,1010.7263
2019-04-22T15:08:45.085Z,1010.7909
2019-04-22T15:08:58.938Z,1010.6859
2019-04-22T15:09:10.191Z,1010.7031
2019-04-22T15:09:21.855Z,1010.7256
2019-04-22T15:09:34.185Z,1010.7206
2019-04-22T15:09:46.202Z,1010.7366
2019-04-22T15:09:58.125Z,1010.705
2019-04-22T15:10:10.294Z,1010.6706
2019-04-22T15:10:22.189Z,1010.7222
2019-04-22T15:10:33.770Z,1010.6715
2019-04-22T15:10:46.151Z,1010.6646
2019-04-22T15:10:58.215Z,1010.6895
2019-04-22T15:11:10.943Z,1010.7084
2019-04-22T15:11:23.206Z,1010.6887
2019-04-22T15:11:45.793Z,1010.6835
2019-04-22T15:11:57.860Z,1010.6328
2019-04-22T15:12:10.814Z,1010.6793
2019-04-22T15:12:20.444Z,1010.692
2019-04-22T15:12:34.004Z,1010.6655
2019-04-22T15:12:44.493Z,1010.6628
2019-04-22T15:12:53.767Z,1010.6931
2019-04-22T15:13:05.342Z,1010.7103
2019-04-22T15:13:17.738Z,1010.6585
2019-04-22T15:13:29.390Z,1010.6601
2019-04-22T15:13:41.168Z,1010.6688
2019-04-22T15:13:53.517Z,1010.6922
2019-04-22T15:14:05.445Z,1010.6481
2019-04-22T15:14:17.337Z,1010.6223
2019-04-22T15:14:29.866Z,1010.6604
2019-04-22T15:14:41.756Z,1010.5844
2019-04-22T15:14:53.580Z,1010.6216
2019-04-22T15:15:05.777Z,1010.6515
2019-04-22T15:15:17.470Z,1010.6508
2019-04-22T15:15:29.271Z,1010.6353
2019-04-22T15:15:45.612Z,1010.6188
2019-04-22T15:15:56.568Z,1010.6431
2019-04-22T15:16:07.651Z,1010.6052
2019-04-22T15:16:20.106Z,1010.5776
2019-04-22T15:16:32.078Z,1010.6145
2019-04-22T15:16:44.872Z,1010.593
2019-04-22T15:16:57.157Z,1010.6175
2019-04-22T15:17:08.972Z,1010.6484
2019-04-22T15:17:20.786Z,1010.6372
2019-04-22T15:17:33.153Z,1010.6782
2019-04-22T15:17:45.039Z,1010.5858
2019-04-22T15:17:56.851Z,1010.6107
2019-04-22T15:18:10.076Z,1010.5839
2019-04-22T15:18:21.857Z,1010.5477
2019-04-22T15:18:33.534Z,1010.6227
2019-04-22T15:18:45.953Z,1010.6209
2019-04-22T15:18:58.072Z,1010.5847
2019-04-22T15:19:09.667Z,1010.5761
2019-04-22T15:19:22.089Z,1010.5485
2019-04-22T15:19:33.833Z,1010.5537
2019-04-22T15:19:45.525Z,1010.6709
2019-04-22T15:19:58.041Z,1010.5855
2019-04-22T15:20:09.910Z,1010.5745
2019-04-22T15:20:21.591Z,1010.5804
2019-04-22T15:20:33.995Z,1010.6062
2019-04-22T15:20:47.406Z,1010.6356
2019-04-22T15:20:58.541Z,1010.6522
2019-04-22T15:21:10.909Z,1010.6557
2019-04-22T15:21:22.794Z,1010.5801
2019-04-22T15:21:34.544Z,1010.6049
2019-04-22T15:21:47.073Z,1010.685
2019-04-22T15:21:58.890Z,1010.6539
2019-04-22T15:22:10.725Z,1010.6097
2019-04-22T15:22:22.840Z,1010.6887
2019-04-22T15:22:34.684Z,1010.6057
2019-04-22T15:22:46.503Z,1010.6461
2019-04-22T15:22:58.986Z,1010.6511
2019-04-22T15:23:10.892Z,1010.6456
2019-04-22T15:23:22.678Z,1010.6275
2019-04-22T15:23:34.801Z,1010.6177
2019-04-22T15:23:46.701Z,1010.6659
2019-04-22T15:23:58.261Z,1010.6192
2019-04-22T15:24:10.824Z,1010.6482
2019-04-22T15:24:22.893Z,1010.5982
2019-04-22T15:24:34.665Z,1010.6241
2019-04-22T15:24:46.935Z,1010.6337
2019-04-22T15:24:58.547Z,1010.6412
2019-04-22T15:25:10.394Z,1010.6439
2019-04-22T15:25:22.835Z,1010.6152
2019-04-22T15:25:34.866Z,1010.649
2019-04-22T15:25:46.574Z,1010.6711
2019-04-22T15:25:58.937Z,1010.6735
2019-04-22T15:26:10.579Z,1010.6314
2019-04-22T15:26:22.229Z,1010.6484
2019-04-22T15:26:34.616Z,1010.6647
2019-04-22T15:26:46.550Z,1010.5958
2019-04-22T15:26:58.673Z,1010.5991
2019-04-22T15:27:10.619Z,1010.6295
2019-04-22T15:27:22.561Z,1010.6415
2019-04-22T15:27:35.163Z,1010.6578
2019-04-22T15:27:47.740Z,1010.6757
2019-04-22T15:27:59.526Z,1010.6454
2019-04-22T15:28:11.284Z,1010.6693
2019-04-22T15:28:23.723Z,1010.6623
2019-04-22T15:28:35.517Z,1010.7196
2019-04-22T15:28:47.217Z,1010.6505
2019-04-22T15:28:59.632Z,1010.6211
2019-04-22T15:29:11.424Z,1010.677
2019-04-22T15:29:23.200Z,1010.6481
2019-04-22T15:29:35.515Z,1010.615
2019-04-22T15:29:47.316Z,1010.6486
2019-04-22T15:29:59.153Z,1010.6042
2019-04-22T15:30:11.566Z,1010.6567
2019-04-22T15:30:23.518Z,1010.6547
2019-04-22T15:30:35.185Z,1010.6345
2019-04-22T15:30:47.790Z,1010.6269
2019-04-22T15:30:59.614Z,1010.619
2019-04-22T15:31:11.317Z,1010.6302
2019-04-22T15:31:23.618Z,1010.6456
2019-04-22T15:31:35.448Z,1010.6926
2019-04-22T15:31:47.185Z,1010.6545
2019-04-22T15:31:59.837Z,1010.6656
2019-04-22T15:32:11.752Z,1010.6671
2019-04-22T15:32:23.478Z,1010.6512
2019-04-22T15:32:35.681Z,1010.659
2019-04-22T15:32:47.467Z,1010.6276
2019-04-22T15:32:59.047Z,1010.6765
2019-04-22T15:33:11.667Z,1010.6476
2019-04-22T15:33:23.546Z,1010.6129
2019-04-22T15:33:35.345Z,1010.6615
2019-04-22T15:33:49.922Z,1010.6459
2019-04-22T15:34:00.533Z,1010.6482
2019-04-22T15:34:12.359Z,1010.6176
2019-04-22T15:34:24.601Z,1010.6031
2019-04-22T15:34:36.640Z,1010.6122
2019-04-22T15:34:49.102Z,1010.6183
2019-04-22T15:35:01.755Z,1010.6273
2019-04-22T15:35:13.628Z,1010.5928
2019-04-22T15:35:25.448Z,1010.6055
2019-04-22T15:35:37.574Z,1010.6201
2019-04-22T15:35:49.420Z,1010.532
2019-04-22T15:36:01.379Z,1010.6361
2019-04-22T15:36:13.792Z,1010.5687
2019-04-22T15:36:26.212Z,1010.601
2019-04-22T15:36:37.826Z,1010.5509
2019-04-22T15:36:50.377Z,1010.598
2019-04-22T15:37:02.254Z,1010.5631
2019-04-22T15:37:13.999Z,1010.5742
2019-04-22T15:37:26.384Z,1010.5864
2019-04-22T15:37:39.349Z,1010.5881
2019-04-22T15:37:51.226Z,1010.6199
2019-04-22T15:38:04.468Z,1010.6004
2019-04-22T15:38:17.293Z,1010.5959
2019-04-22T15:38:30.069Z,1010.5545
2019-04-22T15:38:42.193Z,1010.5994
2019-04-22T15:38:53.451Z,1010.5925
2019-04-22T15:39:05.174Z,1010.6123
2019-04-22T15:39:17.236Z,1010.5994
2019-04-22T15:39:31.257Z,1010.5448
2019-04-22T15:39:43.676Z,1010.5631
2019-04-22T15:39:56.718Z,1010.5822
2019-04-22T15:40:08.849Z,1010.5402
2019-04-22T15:40:20.622Z,1010.5896
2019-04-22T15:40:31.705Z,1010.5934
2019-04-22T15:40:44.717Z,1010.5059
2019-04-22T15:40:56.664Z,1010.5317
2019-04-22T15:41:08.105Z,1010.6043
2019-04-22T15:41:20.685Z,1010.5888
2019-04-22T15:41:32.650Z,1010.5615
2019-04-22T15:41:55.936Z,1010.5717
2019-04-22T15:42:06.415Z,1010.5487
2019-04-22T15:42:17.922Z,1010.5831
2019-04-22T15:42:28.595Z,1010.5736
2019-04-22T15:42:39.295Z,1010.5599
2019-04-22T15:42:48.904Z,1010.5668
2019-04-22T15:43:00.374Z,1010.5125
2019-04-22T15:43:12.942Z,1010.5285
2019-04-22T15:43:27.131Z,1010.5664
2019-04-22T15:43:37.190Z,1010.5939
2019-04-22T15:43:49.740Z,1010.5884
2019-04-22T15:44:01.827Z,1010.6223
2019-04-22T15:44:13.167Z,1010.6047
2019-04-22T15:44:26.054Z,1010.5854
2019-04-22T15:44:37.842Z,1010.6063
2019-04-22T15:44:49.648Z,1010.6188
2019-04-22T15:45:02.540Z,1010.6248
2019-04-22T15:45:15.059Z,1010.6297
2019-04-22T15:45:28.524Z,1010.5993
2019-04-22T15:45:41.199Z,1010.607
2019-04-22T15:45:52.897Z,1010.6517
2019-04-22T15:46:05.609Z,1010.6176
2019-04-22T15:46:17.962Z,1010.5494
2019-04-22T15:46:29.805Z,1010.5424
2019-04-22T15:46:40.878Z,1010.5507
2019-04-22T15:46:53.174Z,1010.5457
2019-04-22T15:47:04.938Z,1010.5
2019-04-22T15:47:16.318Z,1010.5546
2019-04-22T15:47:29.159Z,1010.534
2019-04-22T15:47:41.875Z,1010.5318
2019-04-22T15:47:53.778Z,1010.5488
2019-04-22T15:48:06.108Z,1010.523
2019-04-22T15:48:18.714Z,1010.5711
2019-04-22T15:48:32.354Z,1010.4953
2019-04-22T15:48:44.060Z,1010.571
2019-04-22T15:48:55.929Z,1010.527
2019-04-22T15:49:07.549Z,1010.5448
2019-04-22T15:49:20.111Z,1010.5962
2019-04-22T15:49:31.980Z,1010.5667
2019-04-22T15:49:42.944Z,1010.4958
2019-04-22T15:49:56.102Z,1010.5198
2019-04-22T15:50:08.018Z,1010.5509
2019-04-22T15:50:19.329Z,1010.5729
2019-04-22T15:50:31.174Z,1010.5692
2019-04-22T15:50:44.548Z,1010.5621
2019-04-22T15:50:55.779Z,1010.5823
2019-04-22T15:51:08.720Z,1010.5666
2019-04-22T15:51:20.722Z,1010.5209
2019-04-22T15:51:32.184Z,1010.5404
2019-04-22T15:51:44.897Z,1010.5382
2019-04-22T15:51:59.332Z,1010.5639
2019-04-22T15:52:10.414Z,1010.5241
2019-04-22T15:52:28.089Z,1010.5582
2019-04-22T15:52:40.444Z,1010.5856
2019-04-22T15:52:51.269Z,1010.582
2019-04-22T15:53:02.289Z,1010.5953
2019-04-22T15:53:13.767Z,1010.589
2019-04-22T15:53:25.634Z,1010.6172
2019-04-22T15:53:37.914Z,1010.6082
2019-04-22T15:53:49.536Z,1010.6149
2019-04-22T15:54:01.467Z,1010.6137
2019-04-22T15:54:13.846Z,1010.6235
2019-04-22T15:54:25.717Z,1010.6137
2019-04-22T15:54:37.778Z,1010.6245
2019-04-22T15:54:51.779Z,1010.6218
2019-04-22T15:55:02.859Z,1010.6283
2019-04-22T15:55:14.529Z,1010.5873
2019-04-22T15:55:27.116Z,1010.5946
2019-04-22T15:55:38.979Z,1010.5748
2019-04-22T15:55:50.479Z,1010.6105
2019-04-22T15:56:02.986Z,1010.5825
2019-04-22T15:56:15.021Z,1010.5773
2019-04-22T15:56:26.871Z,1010.5463
2019-04-22T15:56:39.026Z,1010.5482
2019-04-22T15:56:50.803Z,1010.5979
2019-04-22T15:57:02.588Z,1010.5756
2019-04-22T15:57:14.898Z,1010.5976
2019-04-22T15:57:26.626Z,1010.5523
2019-04-22T15:57:38.387Z,1010.5021
2019-04-22T15:57:51.965Z,1010.5477
2019-04-22T15:58:03.933Z,1010.5635
2019-04-22T15:58:15.519Z,1010.5164
2019-04-22T15:58:28.121Z,1010.5054
2019-04-22T15:58:39.611Z,1010.5102
2019-04-22T15:58:51.420Z,1010.489
2019-04-22T15:59:09.724Z,1010.4419
2019-04-22T15:59:29.786Z,1010.4657
2019-04-22T15:59:44.335Z,1010.5217
2019-04-22T15:59:57.092Z,1010.4998
2019-04-22T16:00:10.426Z,1010.4816
2019-04-22T16:00:21.034Z,1010.4923
2019-04-22T16:00:31.819Z,1010.4968
2019-04-22T16:00:44.278Z,1010.3908
2019-04-22T16:00:56.288Z,1010.4858
2019-04-22T16:01:08.676Z,1010.3732
2019-04-22T16:01:17.443Z,1010.4099
2019-04-22T16:01:28.634Z,1010.4152
2019-04-22T16:01:39.368Z,1010.4315
2019-04-22T16:01:50.457Z,1010.4475
2019-04-22T16:02:02.591Z,1010.4479
2019-04-22T16:02:15.978Z,1010.449
2019-04-22T16:02:27.790Z,1010.4166
2019-04-22T16:02:39.471Z,1010.4542
2019-04-22T16:02:51.983Z,1010.4399
2019-04-22T16:03:06.785Z,1010.4274
2019-04-22T16:03:16.717Z,1010.4615
2019-04-22T16:03:28.961Z,1010.4965
2019-04-22T16:03:40.708Z,1010.4599
2019-04-22T16:03:52.481Z,1010.4605
2019-04-22T16:04:05.016Z,1010.3995
2019-04-22T16:04:16.996Z,1010.4584
2019-04-22T16:04:28.675Z,1010.441
2019-04-22T16:04:41.085Z,1010.4305
2019-04-22T16:04:52.748Z,1010.3911
2019-04-22T16:05:04.613Z,1010.4393
2019-04-22T16:05:17.088Z,1010.4218
2019-04-22T16:05:30.196Z,1010.3712
2019-04-22T16:05:41.869Z,1010.4795
2019-04-22T16:05:54.334Z,1010.4337
2019-04-22T16:06:06.268Z,1010.5068
2019-04-22T16:06:18.048Z,1010.4678
2019-04-22T16:06:30.102Z,1010.472
2019-04-22T16:06:43.110Z,1010.4765
2019-04-22T16:06:54.781Z,1010.3861
2019-04-22T16:07:07.155Z,1010.4461
2019-04-22T16:07:22.330Z,1010.427
2019-04-22T16:07:31.927Z,1010.371
2019-04-22T16:07:43.900Z,1010.431
2019-04-22T16:07:56.955Z,1010.3878
2019-04-22T16:08:08.823Z,1010.3952
2019-04-22T16:08:21.286Z,1010.4288
2019-04-22T16:08:35.907Z,1010.431
2019-04-22T16:08:45.925Z,1010.3943
2019-04-22T16:08:58.387Z,1010.3724
2019-04-22T16:09:11.029Z,1010.3331
2019-04-22T16:09:22.742Z,1010.4142
2019-04-22T16:09:34.961Z,1010.4165
2019-04-22T16:09:47.834Z,1010.3188
2019-04-22T16:09:59.602Z,1010.3323
2019-04-22T16:10:12.133Z,1010.3507
2019-04-22T16:10:23.937Z,1010.2988
2019-04-22T16:10:35.629Z,1010.3021
2019-04-22T16:10:48.147Z,1010.2237
2019-04-22T16:11:00.050Z,1010.1889
2019-04-22T16:11:11.818Z,1010.345
2019-04-22T16:11:24.117Z,1010.2776
2019-04-22T16:11:36.054Z,1010.2927
2019-04-22T16:11:47.706Z,1010.2406
2019-04-22T16:12:11.447Z,1010.2846
2019-04-22T16:12:19.848Z,1010.2463
2019-04-22T16:12:30.107Z,1010.2321
2019-04-22T16:12:47.330Z,1010.1907
2019-04-22T16:12:57.145Z,1010.2298
2019-04-22T16:13:09.078Z,1010.1992
2019-04-22T16:13:21.139Z,1010.1688
2019-04-22T16:13:32.003Z,1010.145
2019-04-22T16:13:42.279Z,1010.1165
2019-04-22T16:13:54.656Z,1010.2687
2019-04-22T16:14:06.416Z,1010.2857
2019-04-22T16:14:23.772Z,1010.1774
2019-04-22T16:14:37.111Z,1010.2014
2019-04-22T16:14:47.685Z,1010.181
2019-04-22T16:14:57.393Z,1010.1839
2019-04-22T16:15:11.119Z,1010.2204
2019-04-22T16:15:22.478Z,1010.1833
2019-04-22T16:15:34.313Z,1010.2146
2019-04-22T16:15:46.633Z,1010.2284
2019-04-22T16:15:58.491Z,1010.2075
2019-04-22T16:16:10.325Z,1010.1813
2019-04-22T16:16:22.877Z,1010.1975
2019-04-22T16:16:34.761Z,1010.1431
2019-04-22T16:16:46.455Z,1010.1427
2019-04-22T16:16:58.840Z,1010.0939
2019-04-22T16:17:10.557Z,1010.2195
2019-04-22T16:17:22.391Z,1010.2204
2019-04-22T16:17:34.764Z,1010.1517
2019-04-22T16:17:46.743Z,1010.2146
2019-04-22T16:18:01.487Z,1010.1908
2019-04-22T16:18:13.294Z,1010.2175
2019-04-22T16:18:24.300Z,1010.1931
2019-04-22T16:18:36.117Z,1010.172
2019-04-22T16:18:48.571Z,1010.1539
2019-04-22T16:19:00.597Z,1010.1315
2019-04-22T16:19:12.293Z,1010.1856
2019-04-22T16:19:25.247Z,1010.1643
2019-04-22T16:19:37.011Z,1010.1842
2019-04-22T16:19:49.016Z,1010.1704
2019-04-22T16:20:01.515Z,1010.1495
2019-04-22T16:20:13.340Z,1010.1958
2019-04-22T16:20:25.974Z,1010.1176
2019-04-22T16:20:38.399Z,1010.1537
2019-04-22T16:20:50.271Z,1010.1411
2019-04-22T16:21:02.713Z,1010.1258
2019-04-22T16:21:26.530Z,1010.1303
2019-04-22T16:21:37.516Z,1010.0985
2019-04-22T16:21:47.645Z,1010.112
2019-04-22T16:21:58.245Z,1010.1034
2019-04-22T16:22:09.120Z,1010.1074
2019-04-22T16:22:18.867Z,1010.1437
2019-04-22T16:22:32.440Z,1010.1304
2019-04-22T16:22:43.661Z,1010.1375
2019-04-22T16:22:56.865Z,1010.0976
2019-04-22T16:23:09.562Z,1010.1849
2019-04-22T16:23:24.413Z,1010.1691
2019-04-22T16:23:34.192Z,1010.167
2019-04-22T16:23:46.600Z,1010.1276
2019-04-22T16:23:58.664Z,1010.1648
2019-04-22T16:24:11.084Z,1010.15
2019-04-22T16:24:22.456Z,1010.1593
2019-04-22T16:24:34.098Z,1010.1542
2019-04-22T16:24:45.966Z,1010.1625
2019-04-22T16:24:58.243Z,1010.1481
2019-04-22T16:25:09.422Z,1010.1492
2019-04-22T16:25:22.625Z,1010.0978
2019-04-22T16:25:35.083Z,1010.1021
2019-04-22T16:25:47.239Z,1010.1451
2019-04-22T16:25:59.061Z,1010.1376
2019-04-22T16:26:11.689Z,1010.1329
2019-04-22T16:26:24.251Z,1010.1201
2019-04-22T16:26:36.147Z,1010.1656
2019-04-22T16:26:48.518Z,1010.1836
2019-04-22T16:27:00.415Z,1010.1843
2019-04-22T16:27:12.026Z,1010.1917
2019-04-22T16:27:24.553Z,1010.1405
2019-04-22T16:27:36.349Z,1010.2189
2019-04-22T16:27:48.201Z,1010.15
2019-04-22T16:28:00.609Z,1010.1512
2019-04-22T16:28:13.069Z,1010.1459
2019-04-22T16:28:25.070Z,1010.1496
2019-04-22T16:28:37.411Z,1010.1893
2019-04-22T16:28:49.309Z,1010.1863
2019-04-22T16:29:03.193Z,1010.149
2019-04-22T16:29:15.775Z,1010.1276
2019-04-22T16:29:27.500Z,1010.1109
2019-04-22T16:29:39.304Z,1010.1521
2019-04-22T16:29:51.530Z,1010.0585
2019-04-22T16:30:03.549Z,1010.0659
2019-04-22T16:30:15.067Z,1010.0914
2019-04-22T16:30:27.737Z,1010.0546
2019-04-22T16:30:39.512Z,1010.0355
2019-04-22T16:30:51.221Z,1010.0962
2019-04-22T16:31:03.758Z,1010.0968
2019-04-22T16:31:15.390Z,1010.1526
2019-04-22T16:31:27.100Z,1010.0934
2019-04-22T16:31:39.631Z,1010.0621
2019-04-22T16:31:51.523Z,1010.0764
2019-04-22T16:32:03.160Z,1010.1278
2019-04-22T16:32:15.607Z,1010.1575
2019-04-22T16:32:27.730Z,1010.1611
2019-04-22T16:32:41.361Z,1010.1489
2019-04-22T16:32:52.573Z,1010.1621
2019-04-22T16:33:05.673Z,1010.1363
2019-04-22T16:33:17.336Z,1010.1354
2019-04-22T16:33:29.037Z,1010.1364
2019-04-22T16:33:43.412Z,1010.2
2019-04-22T16:33:54.347Z,1010.14
2019-04-22T16:34:07.577Z,1010.1594
2019-04-22T16:34:19.579Z,1010.1581
2019-04-22T16:34:31.376Z,1010.1899
2019-04-22T16:34:43.226Z,1010.1515
2019-04-22T16:34:56.482Z,1010.1246
2019-04-22T16:35:08.629Z,1010.0825
2019-04-22T16:35:19.657Z,1010.1105
2019-04-22T16:35:32.748Z,1010.1035
2019-04-22T16:35:44.832Z,1010.0901
2019-04-22T16:35:56.192Z,1010.1417
2019-04-22T16:36:08.950Z,1010.1307
2019-04-22T16:36:20.871Z,1010.1182
2019-04-22T16:36:32.839Z,1010.102
2019-04-22T16:36:44.929Z,1010.0871
2019-04-22T16:36:56.772Z,1010.1218
2019-04-22T16:37:08.445Z,1010.0754
2019-04-22T16:37:20.897Z,1010.1735
2019-04-22T16:37:32.693Z,1010.1177
2019-04-22T16:37:43.975Z,1010.1515
2019-04-22T16:37:56.904Z,1010.1743
2019-04-22T16:38:08.773Z,1010.1174
2019-04-22T16:38:20.594Z,1010.1578
2019-04-22T16:38:33.004Z,1010.1123
2019-04-22T16:38:44.841Z,1010.0996
2019-04-22T16:38:57.022Z,1010.1565
2019-04-22T16:39:09.046Z,1010.1584
2019-04-22T16:39:20.862Z,1010.1322
2019-04-22T16:39:32.996Z,1010.0709
2019-04-22T16:39:46.471Z,1010.1149
2019-04-22T16:39:58.880Z,1010.1253
2019-04-22T16:40:10.246Z,1010.0349
2019-04-22T16:40:22.822Z,1010.0441
2019-04-22T16:40:34.710Z,1010.0847
2019-04-22T16:40:45.770Z,1010.0491
2019-04-22T16:40:58.833Z,1010.0507
2019-04-22T16:41:10.907Z,1010.0865
2019-04-22T16:41:22.417Z,1010.0801
2019-04-22T16:41:34.768Z,1010.0631
2019-04-22T16:41:46.647Z,1010.0278
2019-04-22T16:41:58.032Z,1010.0647
2019-04-22T16:42:14.391Z,1010.0587
2019-04-22T16:42:30.066Z,1010.0482
2019-04-22T16:42:42.726Z,1009.9992
2019-04-22T16:42:54.946Z,1010.018
2019-04-22T16:43:03.874Z,1010.0234
2019-04-22T16:43:14.218Z,1010.0108
2019-04-22T16:43:26.557Z,1009.9882
2019-04-22T16:43:38.358Z,1010.0012
2019-04-22T16:43:50.767Z,1010.0318
2019-04-22T16:44:02.694Z,1010.0509
2019-04-22T16:44:14.324Z,1009.977
2019-04-22T16:44:26.797Z,1009.9845
2019-04-22T16:44:38.819Z,1009.9713
2019-04-22T16:44:51.301Z,1009.9796
2019-04-22T16:45:03.733Z,1009.9523
2019-04-22T16:45:15.695Z,1009.9632
2019-04-22T16:45:27.417Z,1010.0068
2019-04-22T16:45:39.974Z,1010.0122
2019-04-22T16:45:51.782Z,1010.005
2019-04-22T16:46:03.349Z,1010.0036
2019-04-22T16:46:15.892Z,1009.9439
2019-04-22T16:46:27.915Z,1009.9223
2019-04-22T16:46:39.884Z,1009.9595
2019-04-22T16:46:51.997Z,1010.0022
2019-04-22T16:47:03.816Z,1010.0402
2019-04-22T16:47:15.744Z,1009.9706
2019-04-22T16:47:27.917Z,1009.9919
2019-04-22T16:47:39.769Z,1009.972
2019-04-22T16:47:51.684Z,1009.9464
2019-04-22T16:48:04.139Z,1009.9786
2019-04-22T16:48:15.854Z,1009.9846
2019-04-22T16:48:27.567Z,1009.999
2019-04-22T16:48:39.882Z,1010.0148
2019-04-22T16:48:51.768Z,1009.9921
2019-04-22T16:49:03.484Z,1009.9627
2019-04-22T16:49:15.893Z,1010.0236
2019-04-22T16:49:27.687Z,1010.0092
2019-04-22T16:49:39.337Z,1009.9887
2019-04-22T16:49:51.869Z,1009.9944
2019-04-22T16:50:03.983Z,1009.9632
2019-04-22T16:50:16.066Z,1010.0098
2019-04-22T16:50:28.967Z,1009.9494
2019-04-22T16:50:41.707Z,1009.969
2019-04-22T16:50:54.921Z,1009.9801
2019-04-22T16:51:06.591Z,1009.9854
2019-04-22T16:51:18.991Z,1009.9483
2019-04-22T16:51:31.976Z,1009.9365
2019-04-22T16:51:43.290Z,1009.9488
2019-04-22T16:51:56.125Z,1009.9685
2019-04-22T16:52:08.132Z,1009.9806
2019-04-22T16:52:19.783Z,1009.9345
2019-04-22T16:52:32.156Z,1009.9751
2019-04-22T16:52:43.947Z,1009.9382
2019-04-22T16:52:55.293Z,1009.9643
2019-04-22T16:53:08.255Z,1009.9223
2019-04-22T16:53:20.889Z,1009.9494
2019-04-22T16:53:32.908Z,1009.9199
2019-04-22T16:53:45.211Z,1009.9156
2019-04-22T16:53:57.852Z,1009.923
2019-04-22T16:54:09.417Z,1009.8811
2019-04-22T16:54:22.125Z,1009.8912
2019-04-22T16:54:34.928Z,1009.9865
2019-04-22T16:54:46.853Z,1009.9779
2019-04-22T16:54:59.083Z,1009.9431
2019-04-22T16:55:10.725Z,1009.9356
2019-04-22T16:55:23.038Z,1009.9428
2019-04-22T16:55:34.936Z,1009.934
2019-04-22T16:55:48.719Z,1009.9168
2019-04-22T16:56:00.149Z,1009.9051
2019-04-22T16:56:12.932Z,1009.9412
2019-04-22T16:56:24.927Z,1009.9218
2019-04-22T16:56:37.187Z,1009.9393
2019-04-22T16:56:49.798Z,1009.9259
2019-04-22T16:57:01.854Z,1009.9286
2019-04-22T16:57:13.158Z,1009.9073
2019-04-22T16:57:26.095Z,1009.9254
2019-04-22T16:57:37.887Z,1009.9227
2019-04-22T16:57:49.648Z,1009.93
2019-04-22T16:58:03.062Z,1009.9082
2019-04-22T16:58:14.765Z,1009.8931
2019-04-22T16:58:26.209Z,1009.8991
2019-04-22T16:58:38.828Z,1009.9132
2019-04-22T16:58:50.684Z,1009.9096
2019-04-22T16:59:01.888Z,1009.9865
2019-04-22T16:59:14.844Z,1009.9327
2019-04-22T16:59:26.769Z,1009.9149
2019-04-22T16:59:38.367Z,1009.9379
2019-04-22T16:59:50.705Z,1009.9452
2019-04-22T17:00:02.817Z,1009.996
2019-04-22T17:00:13.815Z,1009.9865
2019-04-22T17:00:26.767Z,1009.8986
2019-04-22T17:00:38.560Z,1009.9454
2019-04-22T17:00:50.256Z,1009.8876
2019-04-22T17:01:02.873Z,1009.8903
2019-04-22T17:01:14.617Z,1009.899
2019-04-22T17:01:25.707Z,1009.9477
2019-04-22T17:01:38.770Z,1009.9309
2019-04-22T17:01:50.500Z,1009.9301
2019-04-22T17:02:02.184Z,1009.9102
2019-04-22T17:02:14.821Z,1009.9151
2019-04-22T17:02:26.868Z,1009.9744
2019-04-22T17:02:41.516Z,1009.967
2019-04-22T17:02:52.504Z,1009.9703
2019-04-22T17:03:04.724Z,1009.942
2019-04-22T17:03:16.469Z,1009.9582
2019-04-22T17:03:28.902Z,1009.9582
2019-04-22T17:03:40.857Z,1009.8943
2019-04-22T17:03:52.680Z,1009.9113
2019-04-22T17:04:04.888Z,1009.9263
2019-04-22T17:04:16.573Z,1009.959
2019-04-22T17:04:28.508Z,1009.8777
2019-04-22T17:04:40.857Z,1009.9187
2019-04-22T17:04:53.190Z,1009.9245
2019-04-22T17:05:05.274Z,1009.9088
2019-04-22T17:05:17.996Z,1009.8467
2019-04-22T17:05:29.670Z,1009.8404
2019-04-22T17:05:41.504Z,1009.8401
2019-04-22T17:05:53.697Z,1009.9029
2019-04-22T17:06:05.503Z,1009.9142
2019-04-22T17:06:17.430Z,1009.8707
2019-04-22T17:06:29.871Z,1009.8848
2019-04-22T17:06:41.941Z,1009.8518
2019-04-22T17:06:53.785Z,1009.8715
2019-04-22T17:07:05.875Z,1009.8572
2019-04-22T17:07:18.038Z,1009.83
2019-04-22T17:07:29.965Z,1009.8784
2019-04-22T17:07:42.409Z,1009.8576
2019-04-22T17:07:54.252Z,1009.8083
2019-04-22T17:08:06.060Z,1009.8348
2019-04-22T17:08:18.467Z,1009.801
2019-04-22T17:08:30.631Z,1009.8581
2019-04-22T17:08:42.592Z,1009.8756